sensor_id;sensor_type;location;lat;lon;timestamp;P1;durP1;ratioP1;P2;durP2;ratioP2
49812;SDS011;35706;52.100;5.056;2023-10-08T00:00:43;21.80;;;1.95;;
49812;SDS011;35706;52.100;5.056;2023-10-08T00:01:50;21.80;;;1.92;;
49812;SDS011;35706;52.100;5.056;2023-10-08T00:02:51;22.52;;;2.10;;
49812;SDS011;35706;52.100;5.056;2023-10-08T00:03:52;24.58;;;2.08;;
49812;SDS011;35706;52.100;5.056;2023-10-08T00:04:53;14.93;;;1.55;;
49812;SDS011;35706;52.100;5.056;2023-10-08T00:05:58;12.65;;;1.17;;
49812;SDS011;35706;52.100;5.056;2023-10-08T00:06:58;20.98;;;2.05;;
49812;SDS011;35706;52.100;5.056;2023-10-08T00:07:58;18.67;;;2.20;;
49812;SDS011;35706;52.100;5.056;2023-10-08T00:08:59;15.23;;;2.55;;
49812;SDS011;35706;52.100;5.056;2023-10-08T00:10:00;19.20;;;2.20;;
49812;SDS011;35706;52.100;5.056;2023-10-08T00:11:02;13.50;;;2.45;;
49812;SDS011;35706;52.100;5.056;2023-10-08T00:12:06;22.67;;;2.33;;
49812;SDS011;35706;52.100;5.056;2023-10-08T00:13:11;17.45;;;1.83;;
49812;SDS011;35706;52.100;5.056;2023-10-08T00:14:13;21.23;;;2.38;;
49812;SDS011;35706;52.100;5.056;2023-10-08T00:15:21;16.92;;;1.95;;
49812;SDS011;35706;52.100;5.056;2023-10-08T00:16:25;26.20;;;2.30;;
49812;SDS011;35706;52.100;5.056;2023-10-08T00:17:28;18.35;;;1.77;;
49812;SDS011;35706;52.100;5.056;2023-10-08T00:18:28;23.45;;;2.33;;
49812;SDS011;35706;52.100;5.056;2023-10-08T00:19:29;18.33;;;1.92;;
49812;SDS011;35706;52.100;5.056;2023-10-08T00:20:35;14.43;;;1.40;;
49812;SDS011;35706;52.100;5.056;2023-10-08T00:22:48;15.77;;;1.55;;
49812;SDS011;35706;52.100;5.056;2023-10-08T00:23:49;16.88;;;1.52;;
49812;SDS011;35706;52.100;5.056;2023-10-08T00:24:52;13.13;;;1.25;;
49812;SDS011;35706;52.100;5.056;2023-10-08T00:25:58;20.13;;;1.70;;
49812;SDS011;35706;52.100;5.056;2023-10-08T00:27:04;17.42;;;1.50;;
49812;SDS011;35706;52.100;5.056;2023-10-08T00:28:09;21.92;;;2.55;;
49812;SDS011;35706;52.100;5.056;2023-10-08T00:29:13;18.15;;;1.92;;
49812;SDS011;35706;52.100;5.056;2023-10-08T00:30:16;17.63;;;1.65;;
49812;SDS011;35706;52.100;5.056;2023-10-08T00:31:19;14.45;;;2.30;;
49812;SDS011;35706;52.100;5.056;2023-10-08T00:32:23;19.83;;;2.08;;
49812;SDS011;35706;52.100;5.056;2023-10-08T00:33:23;17.75;;;2.25;;
49812;SDS011;35706;52.100;5.056;2023-10-08T00:34:24;16.92;;;1.60;;
49812;SDS011;35706;52.100;5.056;2023-10-08T00:35:25;18.55;;;2.33;;
49812;SDS011;35706;52.100;5.056;2023-10-08T00:36:25;17.20;;;1.65;;
49812;SDS011;35706;52.100;5.056;2023-10-08T00:37:25;23.10;;;2.50;;
49812;SDS011;35706;52.100;5.056;2023-10-08T00:38:27;11.65;;;1.60;;
49812;SDS011;35706;52.100;5.056;2023-10-08T00:39:32;21.55;;;2.08;;
49812;SDS011;35706;52.100;5.056;2023-10-08T00:40:38;20.27;;;2.10;;
49812;SDS011;35706;52.100;5.056;2023-10-08T00:41:43;24.50;;;2.55;;
49812;SDS011;35706;52.100;5.056;2023-10-08T00:42:44;17.50;;;2.80;;
49812;SDS011;35706;52.100;5.056;2023-10-08T00:43:48;19.27;;;1.65;;
49812;SDS011;35706;52.100;5.056;2023-10-08T00:44:49;19.67;;;2.25;;
49812;SDS011;35706;52.100;5.056;2023-10-08T00:45:51;15.65;;;2.00;;
49812;SDS011;35706;52.100;5.056;2023-10-08T00:46:52;24.50;;;2.35;;
49812;SDS011;35706;52.100;5.056;2023-10-08T00:47:56;19.40;;;1.80;;
49812;SDS011;35706;52.100;5.056;2023-10-08T00:48:57;24.80;;;1.70;;
49812;SDS011;35706;52.100;5.056;2023-10-08T00:50:17;18.85;;;2.05;;
49812;SDS011;35706;52.100;5.056;2023-10-08T00:51:24;20.30;;;1.85;;
49812;SDS011;35706;52.100;5.056;2023-10-08T00:52:27;14.15;;;1.70;;
49812;SDS011;35706;52.100;5.056;2023-10-08T00:53:30;26.92;;;2.85;;
49812;SDS011;35706;52.100;5.056;2023-10-08T00:54:35;21.50;;;1.83;;
49812;SDS011;35706;52.100;5.056;2023-10-08T00:55:49;18.17;;;1.80;;
49812;SDS011;35706;52.100;5.056;2023-10-08T00:58:05;17.02;;;1.92;;
49812;SDS011;35706;52.100;5.056;2023-10-08T00:59:24;25.08;;;2.33;;
49812;SDS011;35706;52.100;5.056;2023-10-08T01:00:33;24.92;;;2.10;;
49812;SDS011;35706;52.100;5.056;2023-10-08T01:01:37;19.42;;;1.63;;
49812;SDS011;35706;52.100;5.056;2023-10-08T01:02:39;24.58;;;1.83;;
49812;SDS011;35706;52.100;5.056;2023-10-08T01:04:00;20.88;;;2.70;;
49812;SDS011;35706;52.100;5.056;2023-10-08T01:05:03;26.77;;;2.67;;
49812;SDS011;35706;52.100;5.056;2023-10-08T01:06:03;20.38;;;1.95;;
49812;SDS011;35706;52.100;5.056;2023-10-08T01:07:07;31.63;;;2.42;;
49812;SDS011;35706;52.100;5.056;2023-10-08T01:08:13;24.13;;;2.05;;
49812;SDS011;35706;52.100;5.056;2023-10-08T01:10:37;22.60;;;2.35;;
49812;SDS011;35706;52.100;5.056;2023-10-08T01:11:40;25.33;;;1.90;;
49812;SDS011;35706;52.100;5.056;2023-10-08T01:12:49;23.13;;;1.83;;
49812;SDS011;35706;52.100;5.056;2023-10-08T01:14:12;19.70;;;2.20;;
49812;SDS011;35706;52.100;5.056;2023-10-08T01:15:12;20.63;;;3.15;;
49812;SDS011;35706;52.100;5.056;2023-10-08T01:16:24;24.85;;;2.45;;
49812;SDS011;35706;52.100;5.056;2023-10-08T01:17:27;23.48;;;2.15;;
49812;SDS011;35706;52.100;5.056;2023-10-08T01:18:32;19.90;;;2.75;;
49812;SDS011;35706;52.100;5.056;2023-10-08T01:19:35;19.92;;;2.83;;
49812;SDS011;35706;52.100;5.056;2023-10-08T01:20:39;25.20;;;2.83;;
49812;SDS011;35706;52.100;5.056;2023-10-08T01:21:51;23.80;;;2.30;;
49812;SDS011;35706;52.100;5.056;2023-10-08T01:22:52;19.80;;;2.40;;
49812;SDS011;35706;52.100;5.056;2023-10-08T01:23:52;23.42;;;2.75;;
49812;SDS011;35706;52.100;5.056;2023-10-08T01:24:54;17.45;;;2.38;;
49812;SDS011;35706;52.100;5.056;2023-10-08T01:25:55;21.63;;;2.90;;
49812;SDS011;35706;52.100;5.056;2023-10-08T01:27:10;26.13;;;3.05;;
49812;SDS011;35706;52.100;5.056;2023-10-08T01:28:12;21.08;;;2.55;;
49812;SDS011;35706;52.100;5.056;2023-10-08T01:29:15;17.92;;;2.58;;
49812;SDS011;35706;52.100;5.056;2023-10-08T01:30:21;23.95;;;2.78;;
49812;SDS011;35706;52.100;5.056;2023-10-08T01:31:21;15.27;;;2.72;;
49812;SDS011;35706;52.100;5.056;2023-10-08T01:32:22;27.48;;;2.65;;
49812;SDS011;35706;52.100;5.056;2023-10-08T01:33:22;26.10;;;3.42;;
49812;SDS011;35706;52.100;5.056;2023-10-08T01:34:27;19.85;;;2.78;;
49812;SDS011;35706;52.100;5.056;2023-10-08T01:35:30;16.45;;;2.72;;
49812;SDS011;35706;52.100;5.056;2023-10-08T01:36:31;24.15;;;3.03;;
49812;SDS011;35706;52.100;5.056;2023-10-08T01:37:32;20.10;;;2.88;;
49812;SDS011;35706;52.100;5.056;2023-10-08T01:38:34;28.80;;;2.63;;
49812;SDS011;35706;52.100;5.056;2023-10-08T01:39:37;21.35;;;2.60;;
49812;SDS011;35706;52.100;5.056;2023-10-08T01:40:43;26.25;;;3.05;;
49812;SDS011;35706;52.100;5.056;2023-10-08T01:41:50;19.40;;;2.70;;
49812;SDS011;35706;52.100;5.056;2023-10-08T01:42:51;21.60;;;2.42;;
49812;SDS011;35706;52.100;5.056;2023-10-08T01:43:52;21.08;;;2.50;;
49812;SDS011;35706;52.100;5.056;2023-10-08T01:44:53;22.70;;;2.58;;
49812;SDS011;35706;52.100;5.056;2023-10-08T01:45:55;26.13;;;2.83;;
49812;SDS011;35706;52.100;5.056;2023-10-08T01:46:56;30.30;;;3.53;;
49812;SDS011;35706;52.100;5.056;2023-10-08T01:47:58;17.88;;;2.42;;
49812;SDS011;35706;52.100;5.056;2023-10-08T01:48:58;26.02;;;2.90;;
49812;SDS011;35706;52.100;5.056;2023-10-08T01:50:08;21.48;;;2.47;;
49812;SDS011;35706;52.100;5.056;2023-10-08T01:51:21;19.80;;;2.67;;
49812;SDS011;35706;52.100;5.056;2023-10-08T01:52:37;22.73;;;3.25;;
49812;SDS011;35706;52.100;5.056;2023-10-08T01:53:40;28.58;;;3.40;;
49812;SDS011;35706;52.100;5.056;2023-10-08T01:54:41;20.38;;;2.65;;
49812;SDS011;35706;52.100;5.056;2023-10-08T01:55:41;14.90;;;2.78;;
49812;SDS011;35706;52.100;5.056;2023-10-08T01:56:53;17.63;;;2.42;;
49812;SDS011;35706;52.100;5.056;2023-10-08T01:57:54;20.60;;;2.78;;
49812;SDS011;35706;52.100;5.056;2023-10-08T01:58:54;19.80;;;2.05;;
49812;SDS011;35706;52.100;5.056;2023-10-08T01:59:55;20.80;;;2.42;;
49812;SDS011;35706;52.100;5.056;2023-10-08T02:00:56;20.95;;;3.15;;
49812;SDS011;35706;52.100;5.056;2023-10-08T02:02:05;16.48;;;1.98;;
49812;SDS011;35706;52.100;5.056;2023-10-08T02:03:06;16.80;;;2.33;;
49812;SDS011;35706;52.100;5.056;2023-10-08T02:04:09;24.50;;;2.55;;
49812;SDS011;35706;52.100;5.056;2023-10-08T02:05:12;21.30;;;2.63;;
49812;SDS011;35706;52.100;5.056;2023-10-08T02:06:15;27.92;;;2.25;;
49812;SDS011;35706;52.100;5.056;2023-10-08T02:07:15;21.23;;;2.45;;
49812;SDS011;35706;52.100;5.056;2023-10-08T02:08:16;19.58;;;2.20;;
49812;SDS011;35706;52.100;5.056;2023-10-08T02:09:16;17.30;;;2.95;;
49812;SDS011;35706;52.100;5.056;2023-10-08T02:10:17;15.00;;;1.98;;
49812;SDS011;35706;52.100;5.056;2023-10-08T02:11:17;18.38;;;3.00;;
49812;SDS011;35706;52.100;5.056;2023-10-08T02:12:20;17.65;;;2.17;;
49812;SDS011;35706;52.100;5.056;2023-10-08T02:13:21;18.33;;;2.03;;
49812;SDS011;35706;52.100;5.056;2023-10-08T02:14:22;20.88;;;2.47;;
49812;SDS011;35706;52.100;5.056;2023-10-08T02:15:23;25.73;;;3.42;;
49812;SDS011;35706;52.100;5.056;2023-10-08T02:16:26;21.48;;;2.95;;
49812;SDS011;35706;52.100;5.056;2023-10-08T02:17:27;16.92;;;2.47;;
49812;SDS011;35706;52.100;5.056;2023-10-08T02:18:28;22.52;;;1.98;;
49812;SDS011;35706;52.100;5.056;2023-10-08T02:19:30;17.95;;;2.30;;
49812;SDS011;35706;52.100;5.056;2023-10-08T02:20:31;22.50;;;2.60;;
49812;SDS011;35706;52.100;5.056;2023-10-08T02:21:44;27.90;;;2.88;;
49812;SDS011;35706;52.100;5.056;2023-10-08T02:22:48;25.20;;;2.78;;
49812;SDS011;35706;52.100;5.056;2023-10-08T02:23:49;25.05;;;2.17;;
49812;SDS011;35706;52.100;5.056;2023-10-08T02:24:49;27.38;;;3.03;;
49812;SDS011;35706;52.100;5.056;2023-10-08T02:27:01;17.27;;;2.55;;
49812;SDS011;35706;52.100;5.056;2023-10-08T02:28:02;19.27;;;2.97;;
49812;SDS011;35706;52.100;5.056;2023-10-08T02:29:03;23.85;;;2.63;;
49812;SDS011;35706;52.100;5.056;2023-10-08T02:30:10;25.13;;;3.10;;
49812;SDS011;35706;52.100;5.056;2023-10-08T02:31:12;22.85;;;2.97;;
49812;SDS011;35706;52.100;5.056;2023-10-08T02:32:12;18.75;;;2.42;;
49812;SDS011;35706;52.100;5.056;2023-10-08T02:33:13;17.23;;;2.60;;
49812;SDS011;35706;52.100;5.056;2023-10-08T02:34:14;15.55;;;2.08;;
49812;SDS011;35706;52.100;5.056;2023-10-08T02:35:15;18.25;;;2.35;;
49812;SDS011;35706;52.100;5.056;2023-10-08T02:36:15;20.05;;;2.03;;
49812;SDS011;35706;52.100;5.056;2023-10-08T02:37:16;16.35;;;2.08;;
49812;SDS011;35706;52.100;5.056;2023-10-08T02:38:17;23.75;;;3.22;;
49812;SDS011;35706;52.100;5.056;2023-10-08T02:39:18;22.98;;;2.88;;
49812;SDS011;35706;52.100;5.056;2023-10-08T02:40:21;16.65;;;2.03;;
49812;SDS011;35706;52.100;5.056;2023-10-08T02:41:28;23.25;;;1.80;;
49812;SDS011;35706;52.100;5.056;2023-10-08T02:42:29;28.38;;;2.78;;
49812;SDS011;35706;52.100;5.056;2023-10-08T02:43:29;15.63;;;2.72;;
49812;SDS011;35706;52.100;5.056;2023-10-08T02:44:30;15.07;;;2.45;;
49812;SDS011;35706;52.100;5.056;2023-10-08T02:45:30;24.13;;;3.42;;
49812;SDS011;35706;52.100;5.056;2023-10-08T02:46:31;23.00;;;2.50;;
49812;SDS011;35706;52.100;5.056;2023-10-08T02:47:33;21.45;;;2.90;;
49812;SDS011;35706;52.100;5.056;2023-10-08T02:48:36;22.30;;;3.00;;
49812;SDS011;35706;52.100;5.056;2023-10-08T02:49:36;17.75;;;3.10;;
49812;SDS011;35706;52.100;5.056;2023-10-08T02:50:39;24.35;;;3.38;;
49812;SDS011;35706;52.100;5.056;2023-10-08T02:51:40;16.27;;;2.53;;
49812;SDS011;35706;52.100;5.056;2023-10-08T02:52:44;27.63;;;2.88;;
49812;SDS011;35706;52.100;5.056;2023-10-08T02:53:45;15.43;;;2.40;;
49812;SDS011;35706;52.100;5.056;2023-10-08T02:54:46;21.38;;;3.17;;
49812;SDS011;35706;52.100;5.056;2023-10-08T02:55:47;24.65;;;2.72;;
49812;SDS011;35706;52.100;5.056;2023-10-08T02:56:48;14.48;;;2.88;;
49812;SDS011;35706;52.100;5.056;2023-10-08T02:57:58;18.25;;;2.15;;
49812;SDS011;35706;52.100;5.056;2023-10-08T02:58:59;20.52;;;2.70;;
49812;SDS011;35706;52.100;5.056;2023-10-08T03:00:01;27.48;;;2.65;;
49812;SDS011;35706;52.100;5.056;2023-10-08T03:01:04;18.40;;;2.55;;
49812;SDS011;35706;52.100;5.056;2023-10-08T03:02:04;18.42;;;2.17;;
49812;SDS011;35706;52.100;5.056;2023-10-08T03:03:21;19.67;;;2.67;;
49812;SDS011;35706;52.100;5.056;2023-10-08T03:04:24;22.92;;;3.00;;
49812;SDS011;35706;52.100;5.056;2023-10-08T03:05:28;22.13;;;2.50;;
49812;SDS011;35706;52.100;5.056;2023-10-08T03:06:31;19.45;;;2.47;;
49812;SDS011;35706;52.100;5.056;2023-10-08T03:07:32;23.00;;;2.67;;
49812;SDS011;35706;52.100;5.056;2023-10-08T03:08:33;19.42;;;2.92;;
49812;SDS011;35706;52.100;5.056;2023-10-08T03:09:36;18.52;;;2.45;;
49812;SDS011;35706;52.100;5.056;2023-10-08T03:10:41;21.60;;;3.30;;
49812;SDS011;35706;52.100;5.056;2023-10-08T03:11:44;19.08;;;2.60;;
49812;SDS011;35706;52.100;5.056;2023-10-08T03:12:47;14.20;;;2.28;;
49812;SDS011;35706;52.100;5.056;2023-10-08T03:13:47;21.05;;;2.85;;
49812;SDS011;35706;52.100;5.056;2023-10-08T03:14:51;23.23;;;2.72;;
49812;SDS011;35706;52.100;5.056;2023-10-08T03:16:01;20.02;;;2.50;;
49812;SDS011;35706;52.100;5.056;2023-10-08T03:17:02;25.58;;;3.75;;
49812;SDS011;35706;52.100;5.056;2023-10-08T03:19:36;22.73;;;3.10;;
49812;SDS011;35706;52.100;5.056;2023-10-08T03:20:55;23.67;;;3.55;;
49812;SDS011;35706;52.100;5.056;2023-10-08T03:22:03;19.60;;;3.15;;
49812;SDS011;35706;52.100;5.056;2023-10-08T03:23:05;19.25;;;2.95;;
49812;SDS011;35706;52.100;5.056;2023-10-08T03:24:35;23.50;;;2.38;;
49812;SDS011;35706;52.100;5.056;2023-10-08T03:25:35;22.42;;;3.35;;
49812;SDS011;35706;52.100;5.056;2023-10-08T03:26:41;19.23;;;2.92;;
49812;SDS011;35706;52.100;5.056;2023-10-08T03:27:45;26.48;;;3.90;;
49812;SDS011;35706;52.100;5.056;2023-10-08T03:28:45;21.00;;;2.67;;
49812;SDS011;35706;52.100;5.056;2023-10-08T03:30:57;21.27;;;3.42;;
49812;SDS011;35706;52.100;5.056;2023-10-08T03:32:14;21.48;;;3.22;;
49812;SDS011;35706;52.100;5.056;2023-10-08T03:33:17;21.40;;;3.20;;
49812;SDS011;35706;52.100;5.056;2023-10-08T03:34:24;18.23;;;3.20;;
49812;SDS011;35706;52.100;5.056;2023-10-08T03:35:33;26.10;;;3.13;;
49812;SDS011;35706;52.100;5.056;2023-10-08T03:36:37;19.00;;;2.85;;
49812;SDS011;35706;52.100;5.056;2023-10-08T03:37:44;20.65;;;2.83;;
49812;SDS011;35706;52.100;5.056;2023-10-08T03:38:50;15.23;;;2.53;;
49812;SDS011;35706;52.100;5.056;2023-10-08T03:39:50;17.25;;;2.70;;
49812;SDS011;35706;52.100;5.056;2023-10-08T03:40:51;20.98;;;2.92;;
49812;SDS011;35706;52.100;5.056;2023-10-08T03:41:56;16.42;;;2.83;;
49812;SDS011;35706;52.100;5.056;2023-10-08T03:43:08;16.92;;;3.30;;
49812;SDS011;35706;52.100;5.056;2023-10-08T03:44:31;20.17;;;2.85;;
49812;SDS011;35706;52.100;5.056;2023-10-08T03:45:32;23.75;;;3.08;;
49812;SDS011;35706;52.100;5.056;2023-10-08T03:46:50;18.50;;;3.58;;
49812;SDS011;35706;52.100;5.056;2023-10-08T03:47:52;18.55;;;3.33;;
49812;SDS011;35706;52.100;5.056;2023-10-08T03:49:14;23.48;;;3.40;;
49812;SDS011;35706;52.100;5.056;2023-10-08T03:51:43;22.20;;;2.53;;
49812;SDS011;35706;52.100;5.056;2023-10-08T03:52:43;16.92;;;3.17;;
49812;SDS011;35706;52.100;5.056;2023-10-08T03:53:44;19.00;;;2.67;;
49812;SDS011;35706;52.100;5.056;2023-10-08T03:55:06;16.17;;;2.97;;
49812;SDS011;35706;52.100;5.056;2023-10-08T03:56:21;16.63;;;2.78;;
49812;SDS011;35706;52.100;5.056;2023-10-08T03:57:22;23.38;;;3.15;;
49812;SDS011;35706;52.100;5.056;2023-10-08T03:58:25;20.20;;;3.15;;
49812;SDS011;35706;52.100;5.056;2023-10-08T03:59:30;27.55;;;3.00;;
49812;SDS011;35706;52.100;5.056;2023-10-08T04:00:31;17.58;;;3.22;;
49812;SDS011;35706;52.100;5.056;2023-10-08T04:01:31;23.25;;;3.83;;
49812;SDS011;35706;52.100;5.056;2023-10-08T04:02:33;18.58;;;3.67;;
49812;SDS011;35706;52.100;5.056;2023-10-08T04:03:40;15.60;;;3.05;;
49812;SDS011;35706;52.100;5.056;2023-10-08T04:04:52;23.38;;;4.25;;
49812;SDS011;35706;52.100;5.056;2023-10-08T04:05:56;22.42;;;3.03;;
49812;SDS011;35706;52.100;5.056;2023-10-08T04:07:18;23.02;;;2.60;;
49812;SDS011;35706;52.100;5.056;2023-10-08T04:08:25;19.75;;;2.97;;
49812;SDS011;35706;52.100;5.056;2023-10-08T04:09:42;17.73;;;4.20;;
49812;SDS011;35706;52.100;5.056;2023-10-08T04:10:43;21.23;;;4.07;;
49812;SDS011;35706;52.100;5.056;2023-10-08T04:11:43;23.13;;;4.03;;
49812;SDS011;35706;52.100;5.056;2023-10-08T04:12:56;16.50;;;3.30;;
49812;SDS011;35706;52.100;5.056;2023-10-08T04:13:56;16.92;;;3.60;;
49812;SDS011;35706;52.100;5.056;2023-10-08T04:15:03;24.35;;;3.78;;
49812;SDS011;35706;52.100;5.056;2023-10-08T04:16:12;24.88;;;4.50;;
49812;SDS011;35706;52.100;5.056;2023-10-08T04:17:12;30.10;;;4.63;;
49812;SDS011;35706;52.100;5.056;2023-10-08T04:18:14;23.77;;;3.97;;
49812;SDS011;35706;52.100;5.056;2023-10-08T04:19:14;24.85;;;3.72;;
49812;SDS011;35706;52.100;5.056;2023-10-08T04:20:18;18.23;;;4.53;;
49812;SDS011;35706;52.100;5.056;2023-10-08T04:21:33;16.73;;;4.00;;
49812;SDS011;35706;52.100;5.056;2023-10-08T04:22:34;24.40;;;3.95;;
49812;SDS011;35706;52.100;5.056;2023-10-08T04:23:35;13.60;;;3.08;;
49812;SDS011;35706;52.100;5.056;2023-10-08T04:24:38;20.35;;;3.75;;
49812;SDS011;35706;52.100;5.056;2023-10-08T04:25:43;19.77;;;4.25;;
49812;SDS011;35706;52.100;5.056;2023-10-08T04:26:44;22.10;;;3.83;;
49812;SDS011;35706;52.100;5.056;2023-10-08T04:27:44;22.13;;;3.90;;
49812;SDS011;35706;52.100;5.056;2023-10-08T04:28:50;20.00;;;3.60;;
49812;SDS011;35706;52.100;5.056;2023-10-08T04:29:57;26.00;;;3.92;;
49812;SDS011;35706;52.100;5.056;2023-10-08T04:30:58;17.75;;;3.85;;
49812;SDS011;35706;52.100;5.056;2023-10-08T04:32:04;16.38;;;3.50;;
49812;SDS011;35706;52.100;5.056;2023-10-08T04:33:08;28.58;;;3.95;;
49812;SDS011;35706;52.100;5.056;2023-10-08T04:34:12;24.02;;;3.45;;
49812;SDS011;35706;52.100;5.056;2023-10-08T04:35:15;18.05;;;3.65;;
49812;SDS011;35706;52.100;5.056;2023-10-08T04:36:16;22.27;;;3.28;;
49812;SDS011;35706;52.100;5.056;2023-10-08T04:37:19;18.30;;;3.60;;
49812;SDS011;35706;52.100;5.056;2023-10-08T04:38:21;21.20;;;3.55;;
49812;SDS011;35706;52.100;5.056;2023-10-08T04:39:23;20.52;;;3.13;;
49812;SDS011;35706;52.100;5.056;2023-10-08T04:40:32;16.73;;;3.65;;
49812;SDS011;35706;52.100;5.056;2023-10-08T04:41:40;17.55;;;2.78;;
49812;SDS011;35706;52.100;5.056;2023-10-08T04:42:43;16.83;;;2.80;;
49812;SDS011;35706;52.100;5.056;2023-10-08T04:43:45;19.48;;;3.85;;
49812;SDS011;35706;52.100;5.056;2023-10-08T04:44:45;15.88;;;2.75;;
49812;SDS011;35706;52.100;5.056;2023-10-08T04:45:46;22.05;;;2.72;;
49812;SDS011;35706;52.100;5.056;2023-10-08T04:46:46;19.45;;;3.13;;
49812;SDS011;35706;52.100;5.056;2023-10-08T04:47:47;19.50;;;3.08;;
49812;SDS011;35706;52.100;5.056;2023-10-08T04:48:49;21.58;;;2.72;;
49812;SDS011;35706;52.100;5.056;2023-10-08T04:49:49;26.73;;;3.42;;
49812;SDS011;35706;52.100;5.056;2023-10-08T04:50:53;17.45;;;3.20;;
49812;SDS011;35706;52.100;5.056;2023-10-08T04:52:03;18.27;;;2.53;;
49812;SDS011;35706;52.100;5.056;2023-10-08T04:53:08;19.63;;;2.17;;
49812;SDS011;35706;52.100;5.056;2023-10-08T04:54:10;16.33;;;2.22;;
49812;SDS011;35706;52.100;5.056;2023-10-08T04:55:16;14.63;;;2.22;;
49812;SDS011;35706;52.100;5.056;2023-10-08T04:56:20;16.35;;;2.67;;
49812;SDS011;35706;52.100;5.056;2023-10-08T04:57:23;23.13;;;2.38;;
49812;SDS011;35706;52.100;5.056;2023-10-08T04:58:25;12.07;;;2.20;;
49812;SDS011;35706;52.100;5.056;2023-10-08T04:59:33;16.63;;;1.95;;
49812;SDS011;35706;52.100;5.056;2023-10-08T05:00:33;17.23;;;2.05;;
49812;SDS011;35706;52.100;5.056;2023-10-08T05:01:52;23.10;;;3.13;;
49812;SDS011;35706;52.100;5.056;2023-10-08T05:03:11;21.73;;;3.28;;
49812;SDS011;35706;52.100;5.056;2023-10-08T05:04:15;23.70;;;2.45;;
49812;SDS011;35706;52.100;5.056;2023-10-08T05:05:27;22.35;;;2.42;;
49812;SDS011;35706;52.100;5.056;2023-10-08T05:06:38;22.58;;;2.75;;
49812;SDS011;35706;52.100;5.056;2023-10-08T05:07:38;23.77;;;3.00;;
49812;SDS011;35706;52.100;5.056;2023-10-08T05:08:45;22.00;;;2.20;;
49812;SDS011;35706;52.100;5.056;2023-10-08T05:09:57;14.88;;;1.88;;
49812;SDS011;35706;52.100;5.056;2023-10-08T05:11:03;22.45;;;2.30;;
49812;SDS011;35706;52.100;5.056;2023-10-08T05:12:24;24.35;;;2.55;;
49812;SDS011;35706;52.100;5.056;2023-10-08T05:13:43;21.15;;;2.75;;
49812;SDS011;35706;52.100;5.056;2023-10-08T05:15:05;27.98;;;2.70;;
49812;SDS011;35706;52.100;5.056;2023-10-08T05:16:22;26.40;;;2.55;;
49812;SDS011;35706;52.100;5.056;2023-10-08T05:17:45;21.35;;;2.13;;
49812;SDS011;35706;52.100;5.056;2023-10-08T05:19:07;26.77;;;2.20;;
49812;SDS011;35706;52.100;5.056;2023-10-08T05:20:24;21.20;;;1.92;;
49812;SDS011;35706;52.100;5.056;2023-10-08T05:21:43;25.10;;;2.05;;
49812;SDS011;35706;52.100;5.056;2023-10-08T05:22:51;23.67;;;1.92;;
49812;SDS011;35706;52.100;5.056;2023-10-08T05:24:18;20.77;;;2.33;;
49812;SDS011;35706;52.100;5.056;2023-10-08T05:25:27;17.75;;;2.80;;
49812;SDS011;35706;52.100;5.056;2023-10-08T05:26:40;21.67;;;2.00;;
49812;SDS011;35706;52.100;5.056;2023-10-08T05:27:51;15.20;;;1.98;;
49812;SDS011;35706;52.100;5.056;2023-10-08T05:28:52;14.90;;;2.75;;
49812;SDS011;35706;52.100;5.056;2023-10-08T05:30:04;21.30;;;2.22;;
49812;SDS011;35706;52.100;5.056;2023-10-08T05:31:16;18.13;;;1.88;;
49812;SDS011;35706;52.100;5.056;2023-10-08T05:32:16;18.38;;;1.67;;
49812;SDS011;35706;52.100;5.056;2023-10-08T05:33:35;22.65;;;2.33;;
49812;SDS011;35706;52.100;5.056;2023-10-08T05:34:58;19.75;;;2.20;;
49812;SDS011;35706;52.100;5.056;2023-10-08T05:36:18;23.45;;;2.22;;
49812;SDS011;35706;52.100;5.056;2023-10-08T05:37:27;19.45;;;1.63;;
49812;SDS011;35706;52.100;5.056;2023-10-08T05:38:41;14.45;;;1.77;;
49812;SDS011;35706;52.100;5.056;2023-10-08T05:39:49;18.67;;;1.77;;
49812;SDS011;35706;52.100;5.056;2023-10-08T05:40:56;18.23;;;1.58;;
49812;SDS011;35706;52.100;5.056;2023-10-08T05:42:00;12.45;;;1.08;;
49812;SDS011;35706;52.100;5.056;2023-10-08T05:43:36;11.85;;;1.25;;
49812;SDS011;35706;52.100;5.056;2023-10-08T05:44:43;9.88;;;1.00;;
49812;SDS011;35706;52.100;5.056;2023-10-08T05:46:11;10.75;;;0.85;;
49812;SDS011;35706;52.100;5.056;2023-10-08T05:47:21;15.93;;;1.10;;
49812;SDS011;35706;52.100;5.056;2023-10-08T05:48:33;11.45;;;0.90;;
49812;SDS011;35706;52.100;5.056;2023-10-08T05:49:45;13.65;;;0.90;;
49812;SDS011;35706;52.100;5.056;2023-10-08T05:51:08;13.20;;;1.17;;
49812;SDS011;35706;52.100;5.056;2023-10-08T05:52:23;13.68;;;0.70;;
49812;SDS011;35706;52.100;5.056;2023-10-08T05:53:40;12.23;;;0.77;;
49812;SDS011;35706;52.100;5.056;2023-10-08T05:54:44;8.70;;;0.70;;
49812;SDS011;35706;52.100;5.056;2023-10-08T05:56:04;15.35;;;0.70;;
49812;SDS011;35706;52.100;5.056;2023-10-08T05:57:16;5.18;;;0.60;;
49812;SDS011;35706;52.100;5.056;2023-10-08T05:58:35;7.43;;;0.60;;
49812;SDS011;35706;52.100;5.056;2023-10-08T05:59:47;8.93;;;0.70;;
49812;SDS011;35706;52.100;5.056;2023-10-08T06:00:57;2.97;;;0.50;;
49812;SDS011;35706;52.100;5.056;2023-10-08T06:02:08;8.85;;;0.50;;
49812;SDS011;35706;52.100;5.056;2023-10-08T06:03:27;5.32;;;0.52;;
49812;SDS011;35706;52.100;5.056;2023-10-08T06:05:00;5.38;;;0.50;;
49812;SDS011;35706;52.100;5.056;2023-10-08T06:06:23;7.13;;;0.50;;
49812;SDS011;35706;52.100;5.056;2023-10-08T06:07:38;5.47;;;0.50;;
49812;SDS011;35706;52.100;5.056;2023-10-08T06:08:50;6.93;;;0.50;;
49812;SDS011;35706;52.100;5.056;2023-10-08T06:10:24;5.93;;;0.60;;
49812;SDS011;35706;52.100;5.056;2023-10-08T06:11:35;6.30;;;0.63;;
49812;SDS011;35706;52.100;5.056;2023-10-08T06:14:04;10.73;;;0.60;;
49812;SDS011;35706;52.100;5.056;2023-10-08T06:15:13;7.65;;;0.52;;
49812;SDS011;35706;52.100;5.056;2023-10-08T06:16:13;5.50;;;0.50;;
49812;SDS011;35706;52.100;5.056;2023-10-08T06:17:30;6.78;;;0.50;;
49812;SDS011;35706;52.100;5.056;2023-10-08T06:18:44;7.90;;;0.80;;
49812;SDS011;35706;52.100;5.056;2023-10-08T06:19:44;6.80;;;0.52;;
49812;SDS011;35706;52.100;5.056;2023-10-08T06:20:45;2.60;;;0.50;;
49812;SDS011;35706;52.100;5.056;2023-10-08T06:21:46;6.45;;;0.60;;
49812;SDS011;35706;52.100;5.056;2023-10-08T06:22:46;4.88;;;0.65;;
49812;SDS011;35706;52.100;5.056;2023-10-08T06:23:46;2.15;;;0.43;;
49812;SDS011;35706;52.100;5.056;2023-10-08T06:24:47;5.57;;;0.50;;
49812;SDS011;35706;52.100;5.056;2023-10-08T06:25:47;9.02;;;0.60;;
49812;SDS011;35706;52.100;5.056;2023-10-08T06:26:54;6.65;;;0.50;;
49812;SDS011;35706;52.100;5.056;2023-10-08T06:27:55;4.45;;;0.60;;
49812;SDS011;35706;52.100;5.056;2023-10-08T06:28:55;5.78;;;0.60;;
49812;SDS011;35706;52.100;5.056;2023-10-08T06:29:58;7.28;;;0.50;;
49812;SDS011;35706;52.100;5.056;2023-10-08T06:30:58;8.60;;;0.50;;
49812;SDS011;35706;52.100;5.056;2023-10-08T06:31:59;5.53;;;0.60;;
49812;SDS011;35706;52.100;5.056;2023-10-08T06:33:02;5.18;;;0.50;;
49812;SDS011;35706;52.100;5.056;2023-10-08T06:34:03;3.75;;;0.60;;
49812;SDS011;35706;52.100;5.056;2023-10-08T06:35:08;4.90;;;0.50;;
49812;SDS011;35706;52.100;5.056;2023-10-08T06:36:11;8.00;;;0.70;;
49812;SDS011;35706;52.100;5.056;2023-10-08T06:37:11;8.15;;;0.60;;
49812;SDS011;35706;52.100;5.056;2023-10-08T06:38:15;6.10;;;0.50;;
49812;SDS011;35706;52.100;5.056;2023-10-08T06:39:18;6.22;;;0.70;;
49812;SDS011;35706;52.100;5.056;2023-10-08T06:40:25;5.20;;;0.70;;
49812;SDS011;35706;52.100;5.056;2023-10-08T06:41:38;6.15;;;0.55;;